sensor_id;sensor_type;location;lat;lon;timestamp;temperature;humidity
27384;DHT22;14851;51.166;4.760;2024-01-16T00:00:22;1.00;99.90
27384;DHT22;14851;51.166;4.760;2024-01-16T00:02:51;1.00;99.90
27384;DHT22;14851;51.166;4.760;2024-01-16T00:05:17;1.00;99.90
27384;DHT22;14851;51.166;4.760;2024-01-16T00:07:43;1.10;99.90
27384;DHT22;14851;51.166;4.760;2024-01-16T00:10:09;1.00;99.90
27384;DHT22;14851;51.166;4.760;2024-01-16T00:12:35;1.10;99.90
27384;DHT22;14851;51.166;4.760;2024-01-16T00:15:02;1.10;99.90
27384;DHT22;14851;51.166;4.760;2024-01-16T00:17:27;1.10;99.90
27384;DHT22;14851;51.166;4.760;2024-01-16T00:19:53;1.10;99.90
27384;DHT22;14851;51.166;4.760;2024-01-16T00:22:20;1.10;99.90
27384;DHT22;14851;51.166;4.760;2024-01-16T00:24:47;1.10;99.90
27384;DHT22;14851;51.166;4.760;2024-01-16T00:27:13;1.10;99.90
27384;DHT22;14851;51.166;4.760;2024-01-16T00:29:39;1.10;99.90
27384;DHT22;14851;51.166;4.760;2024-01-16T00:32:05;1.10;99.90
27384;DHT22;14851;51.166;4.760;2024-01-16T00:34:31;1.10;99.90
27384;DHT22;14851;51.166;4.760;2024-01-16T00:37:00;1.10;99.90
27384;DHT22;14851;51.166;4.760;2024-01-16T00:39:25;1.10;99.90
27384;DHT22;14851;51.166;4.760;2024-01-16T00:41:52;1.10;99.90
27384;DHT22;14851;51.166;4.760;2024-01-16T00:44:18;1.10;99.90
27384;DHT22;14851;51.166;4.760;2024-01-16T00:46:47;1.10;99.90
27384;DHT22;14851;51.166;4.760;2024-01-16T00:49:14;1.10;99.90
27384;DHT22;14851;51.166;4.760;2024-01-16T00:51:40;1.10;99.90
27384;DHT22;14851;51.166;4.760;2024-01-16T00:54:12;1.00;99.90
27384;DHT22;14851;51.166;4.760;2024-01-16T00:56:38;1.00;99.90
27384;DHT22;14851;51.166;4.760;2024-01-16T00:59:04;1.00;99.90
27384;DHT22;14851;51.166;4.760;2024-01-16T01:01:30;1.00;99.90
27384;DHT22;14851;51.166;4.760;2024-01-16T01:03:56;1.00;99.90
27384;DHT22;14851;51.166;4.760;2024-01-16T01:06:24;1.00;99.90
27384;DHT22;14851;51.166;4.760;2024-01-16T01:08:51;1.00;99.90
27384;DHT22;14851;51.166;4.760;2024-01-16T01:11:17;1.00;99.90
27384;DHT22;14851;51.166;4.760;2024-01-16T01:13:43;1.00;99.90
27384;DHT22;14851;51.166;4.760;2024-01-16T01:16:09;1.00;99.90
27384;DHT22;14851;51.166;4.760;2024-01-16T01:18:37;1.10;99.90
27384;DHT22;14851;51.166;4.760;2024-01-16T01:21:03;1.10;99.90
27384;DHT22;14851;51.166;4.760;2024-01-16T01:23:33;1.10;99.90
27384;DHT22;14851;51.166;4.760;2024-01-16T01:26:00;1.10;99.90
27384;DHT22;14851;51.166;4.760;2024-01-16T01:28:27;1.10;99.90
27384;DHT22;14851;51.166;4.760;2024-01-16T01:30:53;1.00;99.90
27384;DHT22;14851;51.166;4.760;2024-01-16T01:33:19;1.00;99.90
27384;DHT22;14851;51.166;4.760;2024-01-16T01:35:46;1.00;99.90
27384;DHT22;14851;51.166;4.760;2024-01-16T01:38:14;1.00;99.90
27384;DHT22;14851;51.166;4.760;2024-01-16T01:40:41;1.00;99.90
27384;DHT22;14851;51.166;4.760;2024-01-16T01:43:23;0.90;99.90
27384;DHT22;14851;51.166;4.760;2024-01-16T01:46:16;0.90;99.90
27384;DHT22;14851;51.166;4.760;2024-01-16T01:48:46;0.90;99.90
27384;DHT22;14851;51.166;4.760;2024-01-16T01:51:14;0.90;99.90
27384;DHT22;14851;51.166;4.760;2024-01-16T01:53:45;0.90;99.90
27384;DHT22;14851;51.166;4.760;2024-01-16T01:56:16;0.90;99.90
27384;DHT22;14851;51.166;4.760;2024-01-16T01:58:45;0.90;99.90
27384;DHT22;14851;51.166;4.760;2024-01-16T02:01:13;0.80;99.90
27384;DHT22;14851;51.166;4.760;2024-01-16T02:03:45;0.80;99.90
27384;DHT22;14851;51.166;4.760;2024-01-16T02:06:11;0.80;99.90
27384;DHT22;14851;51.166;4.760;2024-01-16T02:08:44;0.80;99.90
27384;DHT22;14851;51.166;4.760;2024-01-16T02:11:10;0.80;99.90
27384;DHT22;14851;51.166;4.760;2024-01-16T02:13:37;0.80;99.90
27384;DHT22;14851;51.166;4.760;2024-01-16T02:16:05;0.70;99.90
27384;DHT22;14851;51.166;4.760;2024-01-16T02:18:42;0.70;99.90
27384;DHT22;14851;51.166;4.760;2024-01-16T02:21:08;0.70;99.90
27384;DHT22;14851;51.166;4.760;2024-01-16T02:23:34;0.70;99.90
27384;DHT22;14851;51.166;4.760;2024-01-16T02:26:01;0.70;99.90
27384;DHT22;14851;51.166;4.760;2024-01-16T02:28:31;0.70;99.90
27384;DHT22;14851;51.166;4.760;2024-01-16T02:30:57;0.60;99.90
27384;DHT22;14851;51.166;4.760;2024-01-16T02:33:23;0.70;99.90
27384;DHT22;14851;51.166;4.760;2024-01-16T02:35:49;0.60;99.90
27384;DHT22;14851;51.166;4.760;2024-01-16T02:38:15;0.60;99.90
27384;DHT22;14851;51.166;4.760;2024-01-16T02:40:40;0.60;99.90
27384;DHT22;14851;51.166;4.760;2024-01-16T02:43:07;0.60;99.90
27384;DHT22;14851;51.166;4.760;2024-01-16T02:45:33;0.60;99.90
27384;DHT22;14851;51.166;4.760;2024-01-16T02:48:00;0.60;99.90
27384;DHT22;14851;51.166;4.760;2024-01-16T02:50:27;0.50;99.90
27384;DHT22;14851;51.166;4.760;2024-01-16T02:52:54;0.50;99.90
27384;DHT22;14851;51.166;4.760;2024-01-16T02:55:20;0.50;99.90
27384;DHT22;14851;51.166;4.760;2024-01-16T02:57:46;0.50;99.90
27384;DHT22;14851;51.166;4.760;2024-01-16T03:00:12;0.50;99.90
27384;DHT22;14851;51.166;4.760;2024-01-16T03:02:40;0.50;99.90
27384;DHT22;14851;51.166;4.760;2024-01-16T03:05:09;0.50;99.90
27384;DHT22;14851;51.166;4.760;2024-01-16T03:07:38;0.50;99.90
27384;DHT22;14851;51.166;4.760;2024-01-16T03:10:07;0.50;99.90
27384;DHT22;14851;51.166;4.760;2024-01-16T03:12:33;0.40;99.90
27384;DHT22;14851;51.166;4.760;2024-01-16T03:14:59;0.40;99.90
27384;DHT22;14851;51.166;4.760;2024-01-16T03:17:29;0.40;99.90
27384;DHT22;14851;51.166;4.760;2024-01-16T03:19:58;0.40;99.90
27384;DHT22;14851;51.166;4.760;2024-01-16T03:22:25;0.40;99.90
27384;DHT22;14851;51.166;4.760;2024-01-16T03:24:56;0.30;99.90
27384;DHT22;14851;51.166;4.760;2024-01-16T03:27:22;0.30;99.90
27384;DHT22;14851;51.166;4.760;2024-01-16T03:29:48;0.30;99.90
27384;DHT22;14851;51.166;4.760;2024-01-16T03:32:16;0.30;99.90
27384;DHT22;14851;51.166;4.760;2024-01-16T03:34:42;0.30;99.90
27384;DHT22;14851;51.166;4.760;2024-01-16T03:37:08;0.20;99.90
27384;DHT22;14851;51.166;4.760;2024-01-16T03:39:34;0.20;99.90
27384;DHT22;14851;51.166;4.760;2024-01-16T03:42:01;0.20;99.90
27384;DHT22;14851;51.166;4.760;2024-01-16T03:44:29;0.10;99.90
27384;DHT22;14851;51.166;4.760;2024-01-16T03:46:58;0.10;99.90
27384;DHT22;14851;51.166;4.760;2024-01-16T03:49:29;0.20;99.90
27384;DHT22;14851;51.166;4.760;2024-01-16T03:51:55;0.10;99.90
27384;DHT22;14851;51.166;4.760;2024-01-16T03:54:21;0.10;99.90
27384;DHT22;14851;51.166;4.760;2024-01-16T03:56:49;0.10;99.90
27384;DHT22;14851;51.166;4.760;2024-01-16T03:59:15;0.00;99.90
27384;DHT22;14851;51.166;4.760;2024-01-16T04:01:42;0.00;99.90
27384;DHT22;14851;51.166;4.760;2024-01-16T04:04:10;0.00;99.90
27384;DHT22;14851;51.166;4.760;2024-01-16T04:06:38;0.00;99.90
27384;DHT22;14851;51.166;4.760;2024-01-16T04:09:05;0.00;99.90
27384;DHT22;14851;51.166;4.760;2024-01-16T04:11:31;-0.10;99.90
27384;DHT22;14851;51.166;4.760;2024-01-16T04:13:57;0.00;99.90
27384;DHT22;14851;51.166;4.760;2024-01-16T04:16:26;0.00;99.90
27384;DHT22;14851;51.166;4.760;2024-01-16T04:18:55;-0.10;99.90
27384;DHT22;14851;51.166;4.760;2024-01-16T04:21:20;-0.10;99.90
27384;DHT22;14851;51.166;4.760;2024-01-16T04:23:47;-0.10;99.90
27384;DHT22;14851;51.166;4.760;2024-01-16T04:26:14;0.00;99.90
27384;DHT22;14851;51.166;4.760;2024-01-16T04:28:42;0.00;99.90
27384;DHT22;14851;51.166;4.760;2024-01-16T04:31:08;0.00;99.90
27384;DHT22;14851;51.166;4.760;2024-01-16T04:33:34;0.00;99.90
27384;DHT22;14851;51.166;4.760;2024-01-16T04:36:00;0.00;99.90
27384;DHT22;14851;51.166;4.760;2024-01-16T04:38:26;0.00;99.90
27384;DHT22;14851;51.166;4.760;2024-01-16T04:40:51;0.00;99.90
27384;DHT22;14851;51.166;4.760;2024-01-16T04:43:17;0.00;99.90
27384;DHT22;14851;51.166;4.760;2024-01-16T04:45:43;0.00;99.90
27384;DHT22;14851;51.166;4.760;2024-01-16T04:48:09;0.00;99.90
27384;DHT22;14851;51.166;4.760;2024-01-16T04:50:35;-0.10;99.90
27384;DHT22;14851;51.166;4.760;2024-01-16T04:53:02;0.00;99.90
27384;DHT22;14851;51.166;4.760;2024-01-16T04:55:28;0.00;99.90
27384;DHT22;14851;51.166;4.760;2024-01-16T04:57:55;0.00;99.90
27384;DHT22;14851;51.166;4.760;2024-01-16T05:00:22;-0.10;99.90
27384;DHT22;14851;51.166;4.760;2024-01-16T05:02:50;-0.10;99.90
27384;DHT22;14851;51.166;4.760;2024-01-16T05:05:17;-0.10;99.90
27384;DHT22;14851;51.166;4.760;2024-01-16T05:07:43;-0.10;99.90
27384;DHT22;14851;51.166;4.760;2024-01-16T05:10:13;-0.20;99.90
27384;DHT22;14851;51.166;4.760;2024-01-16T05:12:41;-0.20;99.90
27384;DHT22;14851;51.166;4.760;2024-01-16T05:15:08;-0.20;99.90
27384;DHT22;14851;51.166;4.760;2024-01-16T05:17:36;-0.20;99.90
27384;DHT22;14851;51.166;4.760;2024-01-16T05:20:03;-0.20;99.90
27384;DHT22;14851;51.166;4.760;2024-01-16T05:22:33;-0.20;99.90
27384;DHT22;14851;51.166;4.760;2024-01-16T05:24:59;-0.20;99.90
27384;DHT22;14851;51.166;4.760;2024-01-16T05:27:26;-0.20;99.90
27384;DHT22;14851;51.166;4.760;2024-01-16T05:29:52;-0.20;99.90
27384;DHT22;14851;51.166;4.760;2024-01-16T05:32:18;-0.20;99.90
27384;DHT22;14851;51.166;4.760;2024-01-16T05:34:44;-0.20;99.90
27384;DHT22;14851;51.166;4.760;2024-01-16T05:37:11;-0.30;99.90
27384;DHT22;14851;51.166;4.760;2024-01-16T05:39:40;-0.30;99.90
27384;DHT22;14851;51.166;4.760;2024-01-16T05:42:07;-0.30;99.90
27384;DHT22;14851;51.166;4.760;2024-01-16T05:44:36;-0.30;99.90
27384;DHT22;14851;51.166;4.760;2024-01-16T05:47:03;-0.30;99.90
27384;DHT22;14851;51.166;4.760;2024-01-16T05:49:32;-0.30;99.90
27384;DHT22;14851;51.166;4.760;2024-01-16T05:52:00;-0.30;99.90
27384;DHT22;14851;51.166;4.760;2024-01-16T05:54:26;-0.30;99.90
27384;DHT22;14851;51.166;4.760;2024-01-16T05:56:52;-0.30;99.90
27384;DHT22;14851;51.166;4.760;2024-01-16T05:59:18;-0.40;99.90
27384;DHT22;14851;51.166;4.760;2024-01-16T06:01:44;-0.40;99.90
27384;DHT22;14851;51.166;4.760;2024-01-16T06:04:10;-0.40;99.90
27384;DHT22;14851;51.166;4.760;2024-01-16T06:06:38;-0.40;99.90
27384;DHT22;14851;51.166;4.760;2024-01-16T06:09:07;-0.40;99.90
27384;DHT22;14851;51.166;4.760;2024-01-16T06:11:33;-0.40;99.90
27384;DHT22;14851;51.166;4.760;2024-01-16T06:14:00;-0.40;99.90
27384;DHT22;14851;51.166;4.760;2024-01-16T06:16:26;-0.40;99.90
27384;DHT22;14851;51.166;4.760;2024-01-16T06:18:54;-0.40;99.90
27384;DHT22;14851;51.166;4.760;2024-01-16T06:21:20;-0.40;99.90
27384;DHT22;14851;51.166;4.760;2024-01-16T06:23:46;-0.40;99.90
27384;DHT22;14851;51.166;4.760;2024-01-16T06:26:14;-0.40;99.90
27384;DHT22;14851;51.166;4.760;2024-01-16T06:28:41;-0.40;99.90
27384;DHT22;14851;51.166;4.760;2024-01-16T06:31:09;-0.40;99.90
27384;DHT22;14851;51.166;4.760;2024-01-16T06:33:35;-0.40;99.90
27384;DHT22;14851;51.166;4.760;2024-01-16T06:36:02;-0.40;99.90
27384;DHT22;14851;51.166;4.760;2024-01-16T06:38:30;-0.40;99.90
27384;DHT22;14851;51.166;4.760;2024-01-16T06:40:57;-0.30;99.90
27384;DHT22;14851;51.166;4.760;2024-01-16T06:43:26;-0.40;99.90
27384;DHT22;14851;51.166;4.760;2024-01-16T06:45:52;-0.40;99.90
27384;DHT22;14851;51.166;4.760;2024-01-16T06:48:18;-0.40;99.90
27384;DHT22;14851;51.166;4.760;2024-01-16T06:50:44;-0.40;99.90
27384;DHT22;14851;51.166;4.760;2024-01-16T06:53:10;-0.40;99.90
27384;DHT22;14851;51.166;4.760;2024-01-16T06:55:36;-0.30;99.90
27384;DHT22;14851;51.166;4.760;2024-01-16T06:58:02;-0.30;99.90
27384;DHT22;14851;51.166;4.760;2024-01-16T07:00:28;-0.30;99.90
27384;DHT22;14851;51.166;4.760;2024-01-16T07:02:57;-0.30;99.90
27384;DHT22;14851;51.166;4.760;2024-01-16T07:05:23;-0.30;99.90
27384;DHT22;14851;51.166;4.760;2024-01-16T07:07:49;-0.30;99.90
27384;DHT22;14851;51.166;4.760;2024-01-16T07:10:15;-0.30;99.90
27384;DHT22;14851;51.166;4.760;2024-01-16T07:12:45;-0.30;99.90
27384;DHT22;14851;51.166;4.760;2024-01-16T07:15:11;-0.30;99.90
27384;DHT22;14851;51.166;4.760;2024-01-16T07:17:37;-0.30;99.90
27384;DHT22;14851;51.166;4.760;2024-01-16T07:20:04;-0.30;99.90
27384;DHT22;14851;51.166;4.760;2024-01-16T07:22:30;-0.30;99.90
27384;DHT22;14851;51.166;4.760;2024-01-16T07:24:56;-0.30;99.90
27384;DHT22;14851;51.166;4.760;2024-01-16T07:27:21;-0.20;99.90
27384;DHT22;14851;51.166;4.760;2024-01-16T07:29:47;-0.30;99.90
27384;DHT22;14851;51.166;4.760;2024-01-16T07:32:13;-0.30;99.90
27384;DHT22;14851;51.166;4.760;2024-01-16T07:34:39;-0.20;99.90
27384;DHT22;14851;51.166;4.760;2024-01-16T07:37:05;-0.30;99.90
27384;DHT22;14851;51.166;4.760;2024-01-16T07:39:30;-0.20;99.90
27384;DHT22;14851;51.166;4.760;2024-01-16T07:41:56;-0.30;99.90
27384;DHT22;14851;51.166;4.760;2024-01-16T07:44:25;-0.30;99.90
27384;DHT22;14851;51.166;4.760;2024-01-16T07:46:50;-0.30;99.90
27384;DHT22;14851;51.166;4.760;2024-01-16T07:49:21;-0.30;99.90
27384;DHT22;14851;51.166;4.760;2024-01-16T07:51:49;-0.30;99.90
27384;DHT22;14851;51.166;4.760;2024-01-16T07:54:20;-0.30;99.90
27384;DHT22;14851;51.166;4.760;2024-01-16T07:56:46;-0.30;99.90
27384;DHT22;14851;51.166;4.760;2024-01-16T07:59:12;-0.20;99.90
27384;DHT22;14851;51.166;4.760;2024-01-16T08:01:39;-0.20;99.90
27384;DHT22;14851;51.166;4.760;2024-01-16T08:04:05;-0.20;99.90
27384;DHT22;14851;51.166;4.760;2024-01-16T08:06:31;-0.20;99.90
27384;DHT22;14851;51.166;4.760;2024-01-16T08:08:57;-0.20;99.90
27384;DHT22;14851;51.166;4.760;2024-01-16T08:11:23;-0.20;99.90
27384;DHT22;14851;51.166;4.760;2024-01-16T08:13:49;-0.20;99.90
27384;DHT22;14851;51.166;4.760;2024-01-16T08:16:15;-0.20;99.90
27384;DHT22;14851;51.166;4.760;2024-01-16T08:18:41;-0.20;99.90
27384;DHT22;14851;51.166;4.760;2024-01-16T08:21:07;-0.20;99.90
27384;DHT22;14851;51.166;4.760;2024-01-16T08:23:34;-0.20;99.90
27384;DHT22;14851;51.166;4.760;2024-01-16T08:26:00;-0.20;99.90
27384;DHT22;14851;51.166;4.760;2024-01-16T08:28:27;-0.10;99.90
27384;DHT22;14851;51.166;4.760;2024-01-16T08:30:53;-0.10;99.90
27384;DHT22;14851;51.166;4.760;2024-01-16T08:33:19;-0.10;99.90
27384;DHT22;14851;51.166;4.760;2024-01-16T08:35:45;-0.20;99.90
27384;DHT22;14851;51.166;4.760;2024-01-16T08:38:13;-0.10;99.90
27384;DHT22;14851;51.166;4.760;2024-01-16T08:40:40;-0.10;99.90
27384;DHT22;14851;51.166;4.760;2024-01-16T08:43:05;0.00;99.90
27384;DHT22;14851;51.166;4.760;2024-01-16T08:45:31;0.00;99.90
27384;DHT22;14851;51.166;4.760;2024-01-16T08:47:57;0.00;99.90
27384;DHT22;14851;51.166;4.760;2024-01-16T08:50:23;0.00;99.90
27384;DHT22;14851;51.166;4.760;2024-01-16T08:52:49;0.00;99.90
27384;DHT22;14851;51.166;4.760;2024-01-16T08:55:16;-0.10;99.90
27384;DHT22;14851;51.166;4.760;2024-01-16T08:57:42;-0.10;99.90
27384;DHT22;14851;51.166;4.760;2024-01-16T09:00:08;-0.10;99.90
27384;DHT22;14851;51.166;4.760;2024-01-16T09:02:35;-0.10;99.90
27384;DHT22;14851;51.166;4.760;2024-01-16T09:05:01;0.00;99.90
27384;DHT22;14851;51.166;4.760;2024-01-16T09:07:28;0.00;99.90
27384;DHT22;14851;51.166;4.760;2024-01-16T09:09:55;0.00;99.90
27384;DHT22;14851;51.166;4.760;2024-01-16T09:12:22;0.00;99.90
27384;DHT22;14851;51.166;4.760;2024-01-16T09:14:48;0.00;99.90
27384;DHT22;14851;51.166;4.760;2024-01-16T09:17:15;0.00;99.90
27384;DHT22;14851;51.166;4.760;2024-01-16T09:19:41;0.00;99.90
27384;DHT22;14851;51.166;4.760;2024-01-16T09:22:07;0.00;99.90
27384;DHT22;14851;51.166;4.760;2024-01-16T09:24:33;0.10;99.90
27384;DHT22;14851;51.166;4.760;2024-01-16T09:27:01;0.20;99.90
27384;DHT22;14851;51.166;4.760;2024-01-16T09:29:32;0.10;99.90
27384;DHT22;14851;51.166;4.760;2024-01-16T09:31:58;0.20;99.90
27384;DHT22;14851;51.166;4.760;2024-01-16T09:34:23;0.20;99.90
27384;DHT22;14851;51.166;4.760;2024-01-16T09:36:49;0.20;99.90
27384;DHT22;14851;51.166;4.760;2024-01-16T09:39:15;0.10;99.90
27384;DHT22;14851;51.166;4.760;2024-01-16T09:41:45;0.20;99.90
27384;DHT22;14851;51.166;4.760;2024-01-16T09:44:11;0.20;99.90
27384;DHT22;14851;51.166;4.760;2024-01-16T09:46:38;0.20;99.90
27384;DHT22;14851;51.166;4.760;2024-01-16T09:49:05;0.20;99.90
27384;DHT22;14851;51.166;4.760;2024-01-16T09:51:32;0.20;99.90
27384;DHT22;14851;51.166;4.760;2024-01-16T09:53:58;0.20;99.90
27384;DHT22;14851;51.166;4.760;2024-01-16T09:56:24;0.20;99.90
27384;DHT22;14851;51.166;4.760;2024-01-16T09:58:55;0.30;99.90
27384;DHT22;14851;51.166;4.760;2024-01-16T10:01:23;0.30;99.90
27384;DHT22;14851;51.166;4.760;2024-01-16T10:03:52;0.20;99.90
27384;DHT22;14851;51.166;4.760;2024-01-16T10:06:20;0.20;99.90
27384;DHT22;14851;51.166;4.760;2024-01-16T10:08:46;0.20;99.90
27384;DHT22;14851;51.166;4.760;2024-01-16T10:11:12;0.20;99.90
27384;DHT22;14851;51.166;4.760;2024-01-16T10:13:38;0.20;99.90
27384;DHT22;14851;51.166;4.760;2024-01-16T10:16:04;0.20;99.90
27384;DHT22;14851;51.166;4.760;2024-01-16T10:18:30;0.20;99.90
27384;DHT22;14851;51.166;4.760;2024-01-16T10:20:56;0.20;99.90
27384;DHT22;14851;51.166;4.760;2024-01-16T10:23:27;0.30;99.90
27384;DHT22;14851;51.166;4.760;2024-01-16T10:26:06;0.30;99.90
27384;DHT22;14851;51.166;4.760;2024-01-16T10:28:33;0.40;99.90
27384;DHT22;14851;51.166;4.760;2024-01-16T10:31:08;0.40;99.90
27384;DHT22;14851;51.166;4.760;2024-01-16T10:33:34;0.40;99.90
27384;DHT22;14851;51.166;4.760;2024-01-16T10:38:40;0.40;99.90
27384;DHT22;14851;51.166;4.760;2024-01-16T10:41:17;0.50;99.90
27384;DHT22;14851;51.166;4.760;2024-01-16T10:43:44;0.50;99.90
27384;DHT22;14851;51.166;4.760;2024-01-16T10:46:12;0.50;99.90
27384;DHT22;14851;51.166;4.760;2024-01-16T10:48:40;0.50;99.90
27384;DHT22;14851;51.166;4.760;2024-01-16T10:51:08;0.60;99.90
27384;DHT22;14851;51.166;4.760;2024-01-16T10:53:39;0.50;99.90
27384;DHT22;14851;51.166;4.760;2024-01-16T10:56:10;0.50;99.90
27384;DHT22;14851;51.166;4.760;2024-01-16T10:58:42;0.50;99.90
27384;DHT22;14851;51.166;4.760;2024-01-16T11:01:12;0.60;99.90
27384;DHT22;14851;51.166;4.760;2024-01-16T11:03:47;0.60;99.90
27384;DHT22;14851;51.166;4.760;2024-01-16T11:06:18;0.60;99.90
27384;DHT22;14851;51.166;4.760;2024-01-16T11:08:49;0.60;99.90
27384;DHT22;14851;51.166;4.760;2024-01-16T11:11:16;0.60;99.90
27384;DHT22;14851;51.166;4.760;2024-01-16T11:13:43;0.60;99.90
27384;DHT22;14851;51.166;4.760;2024-01-16T11:16:12;0.60;99.90
27384;DHT22;14851;51.166;4.760;2024-01-16T11:18:41;0.70;99.90
27384;DHT22;14851;51.166;4.760;2024-01-16T11:21:10;0.70;99.90
27384;DHT22;14851;51.166;4.760;2024-01-16T11:23:42;0.70;99.90
27384;DHT22;14851;51.166;4.760;2024-01-16T11:26:34;0.70;99.90
27384;DHT22;14851;51.166;4.760;2024-01-16T11:29:38;0.80;99.90
27384;DHT22;14851;51.166;4.760;2024-01-16T11:32:05;0.80;99.90
27384;DHT22;14851;51.166;4.760;2024-01-16T11:37:26;0.80;99.90
27384;DHT22;14851;51.166;4.760;2024-01-16T11:42:51;0.90;99.90
27384;DHT22;14851;51.166;4.760;2024-01-16T11:48:22;1.00;99.90
27384;DHT22;14851;51.166;4.760;2024-01-16T11:50:52;0.90;99.90
27384;DHT22;14851;51.166;4.760;2024-01-16T11:53:38;1.00;99.90
27384;DHT22;14851;51.166;4.760;2024-01-16T12:01:30;1.10;99.90
27384;DHT22;14851;51.166;4.760;2024-01-16T12:04:06;1.10;99.90
27384;DHT22;14851;51.166;4.760;2024-01-16T12:06:34;1.10;99.90
27384;DHT22;14851;51.166;4.760;2024-01-16T12:09:15;1.10;99.90
27384;DHT22;14851;51.166;4.760;2024-01-16T12:11:41;1.10;99.90
27384;DHT22;14851;51.166;4.760;2024-01-16T12:14:14;1.20;99.90
27384;DHT22;14851;51.166;4.760;2024-01-16T12:16:39;1.10;99.90
27384;DHT22;14851;51.166;4.760;2024-01-16T12:19:09;1.10;99.90
27384;DHT22;14851;51.166;4.760;2024-01-16T12:21:39;1.10;99.90
27384;DHT22;14851;51.166;4.760;2024-01-16T12:24:06;1.10;99.90
27384;DHT22;14851;51.166;4.760;2024-01-16T12:26:35;1.10;99.90
27384;DHT22;14851;51.166;4.760;2024-01-16T12:29:01;1.10;99.90
27384;DHT22;14851;51.166;4.760;2024-01-16T12:31:28;1.10;99.90
27384;DHT22;14851;51.166;4.760;2024-01-16T12:34:14;1.10;99.90
27384;DHT22;14851;51.166;4.760;2024-01-16T12:36:40;1.10;99.90
27384;DHT22;14851;51.166;4.760;2024-01-16T12:39:06;1.10;99.90
27384;DHT22;14851;51.166;4.760;2024-01-16T12:41:42;1.10;99.90
27384;DHT22;14851;51.166;4.760;2024-01-16T12:44:08;1.10;99.90
27384;DHT22;14851;51.166;4.760;2024-01-16T12:46:34;1.30;99.90
27384;DHT22;14851;51.166;4.760;2024-01-16T12:49:03;1.30;99.90
27384;DHT22;14851;51.166;4.760;2024-01-16T12:51:31;1.30;99.90
27384;DHT22;14851;51.166;4.760;2024-01-16T12:54:11;1.30;99.90
27384;DHT22;14851;51.166;4.760;2024-01-16T12:56:38;1.40;99.90
27384;DHT22;14851;51.166;4.760;2024-01-16T12:59:11;1.40;99.90
27384;DHT22;14851;51.166;4.760;2024-01-16T13:01:44;1.50;99.90
27384;DHT22;14851;51.166;4.760;2024-01-16T13:04:12;1.50;99.90
27384;DHT22;14851;51.166;4.760;2024-01-16T13:06:41;1.50;99.90
27384;DHT22;14851;51.166;4.760;2024-01-16T13:09:09;1.50;99.90
27384;DHT22;14851;51.166;4.760;2024-01-16T13:11:52;1.50;99.90
27384;DHT22;14851;51.166;4.760;2024-01-16T13:14:21;1.50;99.90
27384;DHT22;14851;51.166;4.760;2024-01-16T13:16:47;1.50;99.90
27384;DHT22;14851;51.166;4.760;2024-01-16T13:19:18;1.50;99.90
27384;DHT22;14851;51.166;4.760;2024-01-16T13:21:44;1.60;99.90
27384;DHT22;14851;51.166;4.760;2024-01-16T13:24:11;1.60;99.90
27384;DHT22;14851;51.166;4.760;2024-01-16T13:26:42;1.60;99.90
27384;DHT22;14851;51.166;4.760;2024-01-16T13:29:09;1.60;99.90
27384;DHT22;14851;51.166;4.760;2024-01-16T13:31:34;1.70;99.90
27384;DHT22;14851;51.166;4.760;2024-01-16T13:34:00;1.70;99.90
27384;DHT22;14851;51.166;4.760;2024-01-16T13:36:26;1.70;99.90
27384;DHT22;14851;51.166;4.760;2024-01-16T13:38:53;1.80;99.90
27384;DHT22;14851;51.166;4.760;2024-01-16T13:41:20;1.80;99.90
27384;DHT22;14851;51.166;4.760;2024-01-16T13:43:49;1.80;99.90
27384;DHT22;14851;51.166;4.760;2024-01-16T13:46:17;1.90;99.90
27384;DHT22;14851;51.166;4.760;2024-01-16T13:48:47;1.90;99.90
27384;DHT22;14851;51.166;4.760;2024-01-16T13:51:13;1.80;99.90
27384;DHT22;14851;51.166;4.760;2024-01-16T13:53:41;1.90;99.90
27384;DHT22;14851;51.166;4.760;2024-01-16T13:56:07;1.90;99.90
27384;DHT22;14851;51.166;4.760;2024-01-16T13:58:33;1.90;99.90
27384;DHT22;14851;51.166;4.760;2024-01-16T14:01:00;1.90;99.90
27384;DHT22;14851;51.166;4.760;2024-01-16T14:03:26;1.90;99.90
27384;DHT22;14851;51.166;4.760;2024-01-16T14:05:52;1.90;99.90
27384;DHT22;14851;51.166;4.760;2024-01-16T14:08:18;1.90;99.90
27384;DHT22;14851;51.166;4.760;2024-01-16T14:10:44;2.00;99.90
27384;DHT22;14851;51.166;4.760;2024-01-16T14:13:10;2.00;99.90
27384;DHT22;14851;51.166;4.760;2024-01-16T14:15:35;2.00;99.90
27384;DHT22;14851;51.166;4.760;2024-01-16T14:18:02;2.00;99.90
27384;DHT22;14851;51.166;4.760;2024-01-16T14:20:28;2.00;99.90
27384;DHT22;14851;51.166;4.760;2024-01-16T14:22:56;2.00;99.90
27384;DHT22;14851;51.166;4.760;2024-01-16T14:25:23;2.00;99.90
27384;DHT22;14851;51.166;4.760;2024-01-16T14:27:59;2.00;99.90
27384;DHT22;14851;51.166;4.760;2024-01-16T14:30:26;2.00;99.90
27384;DHT22;14851;51.166;4.760;2024-01-16T14:32:54;2.00;99.90
27384;DHT22;14851;51.166;4.760;2024-01-16T14:35:23;2.00;99.90
27384;DHT22;14851;51.166;4.760;2024-01-16T14:37:50;2.00;99.90
27384;DHT22;14851;51.166;4.760;2024-01-16T14:40:16;2.10;99.90
27384;DHT22;14851;51.166;4.760;2024-01-16T14:42:51;2.10;99.90
27384;DHT22;14851;51.166;4.760;2024-01-16T14:45:23;2.10;99.90
27384;DHT22;14851;51.166;4.760;2024-01-16T14:47:50;2.00;99.90
27384;DHT22;14851;51.166;4.760;2024-01-16T14:50:17;2.00;99.90
27384;DHT22;14851;51.166;4.760;2024-01-16T14:52:44;2.00;99.90
27384;DHT22;14851;51.166;4.760;2024-01-16T14:55:12;2.00;99.90
27384;DHT22;14851;51.166;4.760;2024-01-16T14:57:39;2.00;99.90
27384;DHT22;14851;51.166;4.760;2024-01-16T15:00:11;1.90;99.90
27384;DHT22;14851;51.166;4.760;2024-01-16T15:02:50;1.90;99.90
27384;DHT22;14851;51.166;4.760;2024-01-16T15:05:19;1.90;99.90
27384;DHT22;14851;51.166;4.760;2024-01-16T15:07:46;1.90;99.90
27384;DHT22;14851;51.166;4.760;2024-01-16T15:10:15;1.80;99.90
27384;DHT22;14851;51.166;4.760;2024-01-16T15:12:43;1.80;99.90
27384;DHT22;14851;51.166;4.760;2024-01-16T15:15:10;1.80;99.90
27384;DHT22;14851;51.166;4.760;2024-01-16T15:17:38;1.80;99.90
27384;DHT22;14851;51.166;4.760;2024-01-16T15:20:04;1.80;99.90
27384;DHT22;14851;51.166;4.760;2024-01-16T15:22:45;1.80;99.90
27384;DHT22;14851;51.166;4.760;2024-01-16T15:25:12;1.80;99.90
27384;DHT22;14851;51.166;4.760;2024-01-16T15:27:42;1.80;99.90
27384;DHT22;14851;51.166;4.760;2024-01-16T15:30:09;1.80;99.90
27384;DHT22;14851;51.166;4.760;2024-01-16T15:32:36;1.70;99.90
27384;DHT22;14851;51.166;4.760;2024-01-16T15:35:05;1.70;99.90
27384;DHT22;14851;51.166;4.760;2024-01-16T15:37:35;1.70;99.90
27384;DHT22;14851;51.166;4.760;2024-01-16T15:40:01;1.60;99.90
27384;DHT22;14851;51.166;4.760;2024-01-16T15:42:27;1.60;99.90
27384;DHT22;14851;51.166;4.760;2024-01-16T15:44:53;1.50;99.90
27384;DHT22;14851;51.166;4.760;2024-01-16T15:47:22;1.50;99.90
27384;DHT22;14851;51.166;4.760;2024-01-16T15:49:48;1.50;99.90
27384;DHT22;14851;51.166;4.760;2024-01-16T15:52:14;1.50;99.90
27384;DHT22;14851;51.166;4.760;2024-01-16T15:54:40;1.40;99.90
27384;DHT22;14851;51.166;4.760;2024-01-16T15:57:06;1.30;99.90
27384;DHT22;14851;51.166;4.760;2024-01-16T15:59:32;1.40;99.90
27384;DHT22;14851;51.166;4.760;2024-01-16T16:01:58;1.40;99.90